createdAt,value
2018-11-28T00:01:22.076Z,56.20
2018-11-28T00:03:53.349Z,55.77
2018-11-28T00:06:24.297Z,56.07
2018-11-28T00:08:55.177Z,56.47
2018-11-28T00:11:26.036Z,53.70
2018-11-28T00:13:57.035Z,58.37
2018-11-28T00:16:28.307Z,59.53
2018-11-28T00:18:59.368Z,57.40
2018-11-28T00:21:30.401Z,58.07
2018-11-28T00:24:01.363Z,55.63
2018-11-28T00:26:32.614Z,62.40
2018-11-28T00:29:03.604Z,70.60
2018-11-28T00:31:34.890Z,58.83
2018-11-28T00:34:06.345Z,57.83
2018-11-28T00:36:38.131Z,60.37
2018-11-28T00:39:10.837Z,56.30
2018-11-28T00:41:41.879Z,60.20
2018-11-28T00:44:13.140Z,59.37
2018-11-28T00:46:44.171Z,59.83
2018-11-28T00:49:15.489Z,61.30
2018-11-28T00:51:46.842Z,58.27
2018-11-28T00:54:18.376Z,59.43
2018-11-28T00:56:49.580Z,53.60
2018-11-28T00:59:23.008Z,57.73
2018-11-28T01:01:53.061Z,55.37
2018-11-28T01:04:24.418Z,59.90
2018-11-28T01:06:56.432Z,52.87
2018-11-28T01:09:27.674Z,55.40
2018-11-28T01:11:59.254Z,52.63
2018-11-28T01:14:30.316Z,51.13
2018-11-28T01:17:01.936Z,59.77
2018-11-28T01:19:33.027Z,56.40
2018-11-28T01:22:04.227Z,56.73
2018-11-28T01:24:35.466Z,54.17
2018-11-28T01:27:07.048Z,60.47
2018-11-28T01:29:38.236Z,60.47
2018-11-28T01:32:09.279Z,59.70
2018-11-28T01:34:40.504Z,54.67
2018-11-28T01:37:11.537Z,55.00
2018-11-28T01:39:42.823Z,57.53
2018-11-28T01:42:14.846Z,56.60
2018-11-28T01:44:46.430Z,55.00
2018-11-28T01:47:17.659Z,54.07
2018-11-28T01:49:48.940Z,58.83
2018-11-28T01:52:20.317Z,59.07
2018-11-28T01:54:51.366Z,56.03
2018-11-28T01:57:22.348Z,50.43
2018-11-28T01:59:53.749Z,57.90
2018-11-28T02:02:25.008Z,58.50
2018-11-28T02:04:56.299Z,57.87
2018-11-28T02:07:27.521Z,57.87
2018-11-28T02:09:59.442Z,57.27
2018-11-28T02:12:30.374Z,61.70
2018-11-28T02:15:01.796Z,54.20
2018-11-28T02:17:32.743Z,58.37
2018-11-28T02:20:03.959Z,58.93
2018-11-28T02:22:35.051Z,59.73
2018-11-28T02:25:06.653Z,62.17
2018-11-28T02:27:38.196Z,57.07
2018-11-28T02:30:21.777Z,57.37
2018-11-28T02:32:53.067Z,53.80
2018-11-28T02:35:24.140Z,54.63
2018-11-28T02:37:55.347Z,54.70
2018-11-28T02:40:26.374Z,59.03
2018-11-28T02:42:57.233Z,52.97
2018-11-28T02:45:28.413Z,60.17
2018-11-28T02:47:59.633Z,56.57
2018-11-28T02:50:30.883Z,54.70
2018-11-28T02:53:01.820Z,57.60
2018-11-28T02:55:32.758Z,59.27
2018-11-28T02:58:03.933Z,54.57
2018-11-28T03:00:34.997Z,65.60
2018-11-28T03:03:06.041Z,62.57
2018-11-28T03:05:36.990Z,58.33
2018-11-28T03:08:08.333Z,60.87
2018-11-28T03:10:39.299Z,57.27
2018-11-28T03:13:10.271Z,63.53
2018-11-28T03:15:44.747Z,60.60
2018-11-28T03:18:15.945Z,60.47
2018-11-28T03:20:46.994Z,59.63
2018-11-28T03:23:17.907Z,61.07
2018-11-28T03:25:48.889Z,58.43
2018-11-28T03:28:20.145Z,60.87
2018-11-28T03:30:51.185Z,57.97
2018-11-28T03:33:22.739Z,58.40
2018-11-28T03:35:53.915Z,60.03
2018-11-28T03:38:24.923Z,54.87
2018-11-28T03:40:56.543Z,57.60
2018-11-28T03:43:27.437Z,57.70
2018-11-28T03:45:58.730Z,52.83
2018-11-28T03:48:29.654Z,60.70
2018-11-28T03:51:00.837Z,57.67
2018-11-28T03:53:31.910Z,61.57
2018-11-28T03:56:02.936Z,58.70
2018-11-28T03:58:34.324Z,60.47
2018-11-28T04:01:05.436Z,64.30
2018-11-28T04:03:36.474Z,58.83
2018-11-28T04:06:08.442Z,58.83
2018-11-28T04:08:39.426Z,58.97
2018-11-28T04:11:10.586Z,59.03
2018-11-28T04:13:41.691Z,61.97
2018-11-28T04:16:12.682Z,57.30
2018-11-28T04:18:44.107Z,58.20
2018-11-28T04:21:15.576Z,60.60
2018-11-28T04:23:46.853Z,55.73
2018-11-28T04:26:17.966Z,65.33
2018-11-28T04:28:48.803Z,60.23
2018-11-28T04:31:19.649Z,67.43
2018-11-28T04:33:50.702Z,59.80
2018-11-28T04:36:21.927Z,62.97
2018-11-28T04:38:52.853Z,62.80
2018-11-28T04:41:23.789Z,62.80
2018-11-28T04:43:54.724Z,63.40
2018-11-28T04:46:25.665Z,62.47
2018-11-28T04:48:57.303Z,65.87
2018-11-28T04:51:28.205Z,71.73
2018-11-28T04:53:59.484Z,68.27
2018-11-28T04:56:30.518Z,73.07
2018-11-28T04:59:01.359Z,71.43
2018-11-28T05:01:32.320Z,70.37
2018-11-28T05:04:03.271Z,65.67
2018-11-28T05:07:27.910Z,71.10
2018-11-28T05:09:59.527Z,68.87
2018-11-28T05:12:30.557Z,73.23
2018-11-28T05:15:01.616Z,71.40
2018-11-28T05:17:32.738Z,69.70
2018-11-28T05:20:03.781Z,66.83
2018-11-28T05:22:35.096Z,64.47
2018-11-28T05:25:07.167Z,65.53
2018-11-28T05:27:38.571Z,72.50
2018-11-28T05:30:18.530Z,71.53
2018-11-28T05:32:49.634Z,74.40
2018-11-28T05:35:33.990Z,73.77
2018-11-28T05:38:15.857Z,73.70
2018-11-28T05:40:47.424Z,74.27
2018-11-28T05:43:18.471Z,68.37
2018-11-28T05:45:49.307Z,69.07
2018-11-28T05:48:20.329Z,69.37
2018-11-28T05:50:51.284Z,67.43
2018-11-28T05:53:22.270Z,71.53
2018-11-28T05:55:53.193Z,70.40
2018-11-28T05:58:24.450Z,65.57
2018-11-28T06:00:55.479Z,67.17
2018-11-28T06:03:26.659Z,62.60
2018-11-28T06:05:57.607Z,61.53
2018-11-28T06:08:28.561Z,65.90
2018-11-28T06:10:59.906Z,63.67
2018-11-28T06:13:30.919Z,65.17
2018-11-28T06:16:01.787Z,71.00
2018-11-28T06:18:33.106Z,71.57
2018-11-28T06:21:04.218Z,65.17
2018-11-28T06:23:35.065Z,69.13
2018-11-28T06:26:06.226Z,67.43
2018-11-28T06:28:37.302Z,64.87
2018-11-28T06:31:08.259Z,71.57
2018-11-28T06:33:39.624Z,63.23
2018-11-28T06:36:10.562Z,59.47
2018-11-28T06:38:41.495Z,64.13
2018-11-28T06:41:12.783Z,60.27
2018-11-28T06:43:43.723Z,70.20
2018-11-28T06:46:14.738Z,65.80
2018-11-28T06:48:46.052Z,68.20
2018-11-28T06:51:16.959Z,67.20
2018-11-28T06:53:48.170Z,65.90
2018-11-28T06:56:19.363Z,67.67
2018-11-28T06:58:50.265Z,67.23
2018-11-28T07:01:21.814Z,69.77
2018-11-28T07:03:53.249Z,63.97
2018-11-28T07:06:24.199Z,61.77
2018-11-28T07:08:55.419Z,65.60
2018-11-28T07:11:26.262Z,69.60
2018-11-28T07:13:57.525Z,63.00
2018-11-28T07:16:28.475Z,63.13
2018-11-28T07:19:12.950Z,66.00
2018-11-28T07:21:43.985Z,73.43
2018-11-28T07:24:14.895Z,67.63
2018-11-28T07:26:46.116Z,67.53
2018-11-28T07:29:17.224Z,58.87
2018-11-28T07:31:48.246Z,61.93
2018-11-28T07:34:19.563Z,71.90
2018-11-28T07:36:50.506Z,64.67
2018-11-28T07:39:21.430Z,66.47
2018-11-28T07:41:52.387Z,63.20
2018-11-28T07:44:23.231Z,63.70
2018-11-28T07:46:54.448Z,63.73
2018-11-28T07:49:25.614Z,60.93
2018-11-28T07:51:56.506Z,67.47
2018-11-28T07:54:27.636Z,65.50
2018-11-28T07:56:58.786Z,60.23
2018-11-28T07:59:30.203Z,66.37
2018-11-28T08:02:01.275Z,66.57
2018-11-28T08:04:32.681Z,70.93
2018-11-28T08:07:03.849Z,70.97
2018-11-28T08:09:35.329Z,67.23
2018-11-28T08:12:07.002Z,65.63
2018-11-28T08:14:38.010Z,65.80
2018-11-28T08:17:09.587Z,69.97
2018-11-28T08:19:40.686Z,68.07
2018-11-28T08:22:11.901Z,63.60
2018-11-28T08:24:42.948Z,72.23
2018-11-28T08:27:14.873Z,67.37
2018-11-28T08:29:46.187Z,67.63
2018-11-28T08:32:17.575Z,67.80
2018-11-28T08:34:48.838Z,64.30
2018-11-28T08:37:19.885Z,69.87
2018-11-28T08:39:51.099Z,62.87
2018-11-28T08:42:22.115Z,69.80
2018-11-28T08:44:53.329Z,67.50
2018-11-28T08:47:24.690Z,71.77
2018-11-28T08:49:55.885Z,62.23
2018-11-28T08:52:26.859Z,62.40
2018-11-28T08:54:58.370Z,68.53
2018-11-28T08:57:29.774Z,65.60
2018-11-28T09:00:00.749Z,65.57
2018-11-28T09:02:32.077Z,61.97
2018-11-28T09:05:03.545Z,74.33
2018-11-28T09:07:35.052Z,62.90
2018-11-28T09:10:08.148Z,68.73
2018-11-28T09:12:39.304Z,70.47
2018-11-28T09:15:23.999Z,72.67
2018-11-28T09:17:55.471Z,66.90
2018-11-28T09:20:26.662Z,69.73
2018-11-28T09:22:58.314Z,66.53
2018-11-28T09:25:29.441Z,65.57
2018-11-28T09:28:03.581Z,61.57
2018-11-28T09:30:35.104Z,60.90
2018-11-28T09:33:06.671Z,62.83
2018-11-28T09:35:37.743Z,62.80
2018-11-28T09:38:09.180Z,64.47
2018-11-28T09:40:40.240Z,65.50
2018-11-28T09:43:11.443Z,64.43
2018-11-28T09:45:42.688Z,67.10
2018-11-28T09:48:13.883Z,64.70
2018-11-28T09:50:44.980Z,64.43
2018-11-28T09:53:16.459Z,65.70
2018-11-28T09:55:47.748Z,62.60
2018-11-28T09:58:18.984Z,71.93
2018-11-28T10:00:50.208Z,65.80
2018-11-28T10:03:21.343Z,64.73
2018-11-28T10:05:52.452Z,63.00
2018-11-28T10:08:23.927Z,65.10
2018-11-28T10:10:55.142Z,67.10
2018-11-28T10:13:26.265Z,71.03
2018-11-28T10:15:57.621Z,67.60
2018-11-28T10:18:28.882Z,57.20
2018-11-28T10:21:00.043Z,68.60
2018-11-28T10:23:31.301Z,68.60
2018-11-28T10:26:02.278Z,67.77
2018-11-28T10:28:33.351Z,61.60
2018-11-28T10:31:04.529Z,68.30
2018-11-28T10:33:35.568Z,59.70
2018-11-28T10:36:07.097Z,63.30
2018-11-28T10:38:38.103Z,63.07
2018-11-28T10:41:09.484Z,62.27
2018-11-28T10:43:40.643Z,55.47
2018-11-28T10:46:11.804Z,62.77
2018-11-28T10:48:42.877Z,57.60
2018-11-28T10:51:14.072Z,59.50
2018-11-28T10:53:45.355Z,61.77
2018-11-28T10:56:16.615Z,62.67
2018-11-28T10:58:47.814Z,62.47
2018-11-28T11:01:26.501Z,63.43
2018-11-28T11:04:16.078Z,67.50
2018-11-28T11:07:04.274Z,63.07
2018-11-28T11:09:52.644Z,63.13
2018-11-28T11:12:40.832Z,62.13
2018-11-28T11:15:12.064Z,57.03
2018-11-28T11:17:43.269Z,60.70
2018-11-28T11:20:14.465Z,64.37
2018-11-28T11:22:45.585Z,61.43
2018-11-28T11:25:17.032Z,64.63
2018-11-28T11:27:48.201Z,60.30
2018-11-28T11:30:19.820Z,60.23
2018-11-28T11:32:51.133Z,61.77
2018-11-28T11:35:22.365Z,54.70
2018-11-28T11:37:53.783Z,56.90
2018-11-28T11:40:25.019Z,53.83
2018-11-28T11:42:56.439Z,59.33
2018-11-28T11:45:27.629Z,52.77
2018-11-28T11:47:58.767Z,56.17
2018-11-28T11:50:30.014Z,52.43
2018-11-28T11:53:01.219Z,55.33
2018-11-28T11:55:32.444Z,52.00
2018-11-28T11:58:03.561Z,49.47
2018-11-28T12:00:34.901Z,53.53
2018-11-28T12:03:13.734Z,53.90
2018-11-28T12:05:55.933Z,51.70
2018-11-28T12:08:28.739Z,51.67
2018-11-28T12:11:00.147Z,52.00
2018-11-28T12:13:31.276Z,51.50
2018-11-28T12:16:02.521Z,51.60
2018-11-28T12:18:33.748Z,51.00
2018-11-28T12:21:07.554Z,54.10
2018-11-28T12:23:39.204Z,59.27
2018-11-28T12:26:10.379Z,51.37
2018-11-28T12:28:41.936Z,57.73
2018-11-28T12:31:13.171Z,47.93
2018-11-28T12:33:44.268Z,48.10
2018-11-28T12:36:15.606Z,49.73
2018-11-28T12:38:46.585Z,49.60
2018-11-28T12:41:17.702Z,53.13
2018-11-28T12:43:49.145Z,53.80
2018-11-28T12:46:20.512Z,52.43
2018-11-28T12:48:51.768Z,49.10
2018-11-28T12:51:22.899Z,51.50
2018-11-28T12:53:54.119Z,52.50
2018-11-28T12:56:25.595Z,53.10
2018-11-28T12:58:56.682Z,52.67
2018-11-28T13:01:27.793Z,53.80
2018-11-28T13:03:58.829Z,56.70
2018-11-28T13:06:29.969Z,55.03
2018-11-28T13:09:01.199Z,56.23
2018-11-28T13:11:32.325Z,58.50
2018-11-28T13:14:03.503Z,53.90
2018-11-28T13:16:34.696Z,59.07
2018-11-28T13:19:05.889Z,56.13
2018-11-28T13:21:37.145Z,55.53
2018-11-28T13:24:08.315Z,58.97
2018-11-28T13:26:39.444Z,58.97
2018-11-28T13:29:10.536Z,57.30
2018-11-28T13:31:41.715Z,58.60
2018-11-28T13:34:12.770Z,54.13
2018-11-28T13:36:43.912Z,59.73
2018-11-28T13:39:14.982Z,60.43
2018-11-28T13:41:46.150Z,59.17
2018-11-28T13:44:17.260Z,64.80
2018-11-28T13:46:48.589Z,60.53
2018-11-28T13:49:19.839Z,62.23
2018-11-28T13:51:51.015Z,60.27
2018-11-28T13:54:22.059Z,55.63
2018-11-28T13:57:03.883Z,60.80
2018-11-28T13:59:24.725Z,57.47
2018-11-28T14:01:55.783Z,61.53
2018-11-28T14:04:26.951Z,62.60
2018-11-28T14:06:57.874Z,63.10
2018-11-28T14:09:28.804Z,58.53
2018-11-28T14:11:59.928Z,63.57
2018-11-28T14:14:31.106Z,61.63
2018-11-28T14:17:02.181Z,66.33
2018-11-28T14:19:33.105Z,64.83
2018-11-28T14:22:04.134Z,60.23
2018-11-28T14:24:35.164Z,63.57
2018-11-28T14:27:06.436Z,56.17
2018-11-28T14:29:37.552Z,67.50
2018-11-28T14:32:08.730Z,58.13
2018-11-28T14:34:39.842Z,55.13
2018-11-28T14:37:10.776Z,58.30
2018-11-28T14:39:42.387Z,64.50
2018-11-28T14:42:13.501Z,59.57
2018-11-28T14:44:44.768Z,59.90
2018-11-28T14:47:15.662Z,68.37
2018-11-28T14:49:46.699Z,64.37
2018-11-28T14:52:17.560Z,65.47
2018-11-28T14:54:48.471Z,60.10
2018-11-28T14:57:19.438Z,71.47
2018-11-28T14:59:50.576Z,68.47
2018-11-28T15:02:21.717Z,72.70
2018-11-28T15:04:52.751Z,71.33
2018-11-28T15:07:25.217Z,68.03
2018-11-28T15:10:02.124Z,66.87
2018-11-28T15:12:33.684Z,69.27
2018-11-28T15:15:05.090Z,64.70
2018-11-28T15:17:36.291Z,70.33
2018-11-28T15:20:09.389Z,67.20
2018-11-28T15:22:40.435Z,68.67
2018-11-28T15:25:12.607Z,66.67
2018-11-28T15:27:43.543Z,63.20
2018-11-28T15:30:14.658Z,70.20
2018-11-28T15:32:45.611Z,75.13
2018-11-28T15:35:17.134Z,70.60
2018-11-28T15:37:47.992Z,71.27
2018-11-28T15:40:18.945Z,69.40
2018-11-28T15:42:50.151Z,67.17
2018-11-28T15:45:21.186Z,59.40
2018-11-28T15:47:52.746Z,57.33
2018-11-28T15:50:23.772Z,62.10
2018-11-28T15:52:55.075Z,59.60
2018-11-28T15:55:26.184Z,64.20
2018-11-28T15:57:57.657Z,57.90
2018-11-28T16:00:28.699Z,62.67
2018-11-28T16:02:59.989Z,65.07
2018-11-28T16:05:31.028Z,64.00
2018-11-28T16:08:02.318Z,65.30
2018-11-28T16:10:38.497Z,67.20
2018-11-28T16:13:09.752Z,67.73
2018-11-28T16:15:57.445Z,67.30
2018-11-28T16:18:28.518Z,79.10
2018-11-28T16:20:59.817Z,74.50
2018-11-28T16:23:30.975Z,70.70
2018-11-28T16:26:02.276Z,66.77
2018-11-28T16:28:33.395Z,79.63
2018-11-28T16:31:04.563Z,75.50
2018-11-28T16:33:35.619Z,82.97
2018-11-28T16:36:06.732Z,79.93
2018-11-28T16:38:37.703Z,82.10
2018-11-28T16:41:08.660Z,84.20
2018-11-28T16:43:39.874Z,85.20
2018-11-28T16:46:11.496Z,86.27
2018-11-28T16:48:43.031Z,75.33
2018-11-28T16:51:14.334Z,85.43
2018-11-28T16:53:45.540Z,83.17
2018-11-28T16:56:16.390Z,86.23
2018-11-28T16:58:47.441Z,82.43
2018-11-28T17:01:18.465Z,79.93
2018-11-28T17:03:49.316Z,73.50
2018-11-28T17:06:20.496Z,89.50
2018-11-28T17:08:51.450Z,81.03
2018-11-28T17:11:22.659Z,76.70
2018-11-28T17:13:53.961Z,79.03
2018-11-28T17:16:24.950Z,83.17
2018-11-28T17:18:55.779Z,90.90
2018-11-28T17:21:26.634Z,83.17
2018-11-28T17:23:58.012Z,75.37
2018-11-28T17:26:29.277Z,75.00
2018-11-28T17:29:00.515Z,83.33
2018-11-28T17:31:31.392Z,79.97
2018-11-28T17:34:02.760Z,85.60
2018-11-28T17:36:33.810Z,78.10
2018-11-28T17:39:09.073Z,77.10
2018-11-28T17:41:40.932Z,72.80
2018-11-28T17:44:11.964Z,73.90
2018-11-28T17:46:43.128Z,78.93
2018-11-28T17:49:14.450Z,74.17
2018-11-28T17:51:45.927Z,73.73
2018-11-28T17:54:16.889Z,69.63
2018-11-28T17:56:48.113Z,76.80
2018-11-28T17:59:19.124Z,74.23
2018-11-28T18:01:50.418Z,75.80
2018-11-28T18:04:21.273Z,71.03
2018-11-28T18:06:52.652Z,75.13
2018-11-28T18:09:23.859Z,79.63
2018-11-28T18:11:55.075Z,76.97
2018-11-28T18:14:26.506Z,85.60
2018-11-28T18:16:57.460Z,79.90
2018-11-28T18:19:28.842Z,79.83
2018-11-28T18:21:59.881Z,89.73
2018-11-28T18:24:31.420Z,85.40
2018-11-28T18:27:02.622Z,91.90
2018-11-28T18:29:33.649Z,80.33
2018-11-28T18:32:04.736Z,82.50
2018-11-28T18:34:35.658Z,73.70
2018-11-28T18:37:07.346Z,77.13
2018-11-28T18:39:38.470Z,68.43
2018-11-28T18:42:09.729Z,77.43
2018-11-28T18:44:40.704Z,79.93
2018-11-28T18:47:11.798Z,71.03
2018-11-28T18:49:42.896Z,81.97
2018-11-28T18:52:14.035Z,73.03
2018-11-28T18:54:45.238Z,75.60
2018-11-28T18:57:16.569Z,80.93
2018-11-28T18:59:48.092Z,76.53
2018-11-28T19:02:19.165Z,76.73
2018-11-28T19:04:50.680Z,72.73
2018-11-28T19:07:21.822Z,72.47
2018-11-28T19:09:53.444Z,76.43
2018-11-28T19:12:24.569Z,90.23
2018-11-28T19:14:55.622Z,84.83
2018-11-28T19:17:26.665Z,86.27
2018-11-28T19:19:57.707Z,88.90
2018-11-28T19:22:28.868Z,78.07
2018-11-28T19:25:00.012Z,78.83
2018-11-28T19:27:31.090Z,77.73
2018-11-28T19:30:02.083Z,67.43
2018-11-28T19:32:33.401Z,75.90
2018-11-28T19:35:04.600Z,69.77
2018-11-28T19:37:35.924Z,65.90
2018-11-28T19:40:17.083Z,66.67
2018-11-28T19:42:48.729Z,74.43
2018-11-28T19:45:20.017Z,68.63
2018-11-28T19:47:51.564Z,62.50
2018-11-28T19:50:31.010Z,63.93
2018-11-28T19:53:02.081Z,60.83
2018-11-28T19:55:33.155Z,65.30
2018-11-28T19:58:04.458Z,60.50
2018-11-28T20:00:35.619Z,67.27
2018-11-28T20:03:07.008Z,64.43
2018-11-28T20:05:38.463Z,65.07
2018-11-28T20:08:10.285Z,60.87
2018-11-28T20:10:41.593Z,60.73
2018-11-28T20:13:13.441Z,63.67
2018-11-28T20:15:48.004Z,65.73
2018-11-28T20:18:19.235Z,72.60
2018-11-28T20:20:50.966Z,68.07
2018-11-28T20:23:22.165Z,64.73
2018-11-28T20:25:53.392Z,64.30
2018-11-28T20:28:24.899Z,65.30
2018-11-28T20:30:56.041Z,62.67
2018-11-28T20:33:27.203Z,62.63
2018-11-28T20:35:58.563Z,68.47
2018-11-28T20:38:35.124Z,63.33
2018-11-28T20:41:06.625Z,67.83
2018-11-28T20:43:37.952Z,72.57
2018-11-28T20:46:09.851Z,73.23
2018-11-28T20:48:41.330Z,69.93
2018-11-28T20:51:12.560Z,72.70
2018-11-28T20:53:43.722Z,78.63
2018-11-28T20:56:15.288Z,76.10
2018-11-28T20:58:46.892Z,72.43
2018-11-28T21:01:18.245Z,80.47
2018-11-28T21:03:49.671Z,75.07
2018-11-28T21:06:21.378Z,74.63
2018-11-28T21:08:52.928Z,77.30
2018-11-28T21:11:23.955Z,76.97
2018-11-28T21:13:55.286Z,74.73
2018-11-28T21:16:26.583Z,79.37
2018-11-28T21:18:58.369Z,78.13
2018-11-28T21:21:30.134Z,80.83
2018-11-28T21:24:01.572Z,71.80
2018-11-28T21:26:32.782Z,84.70
2018-11-28T21:29:04.133Z,68.47
2018-11-28T21:31:36.387Z,75.77
2018-11-28T21:34:08.278Z,67.07
2018-11-28T21:36:40.148Z,80.00
2018-11-28T21:39:12.213Z,71.93
2018-11-28T21:41:43.585Z,74.80
2018-11-28T21:44:15.519Z,67.43
2018-11-28T21:46:46.883Z,73.13
2018-11-28T21:49:17.965Z,77.47
2018-11-28T21:51:49.389Z,77.27
2018-11-28T21:54:20.563Z,75.90
2018-11-28T21:56:51.761Z,75.40
2018-11-28T21:59:23.337Z,75.30
2018-11-28T22:01:54.917Z,71.13
2018-11-28T22:04:26.134Z,74.97
2018-11-28T22:06:57.263Z,72.93
2018-11-28T22:09:33.564Z,77.57
2018-11-28T22:12:04.798Z,75.60
2018-11-28T22:14:36.228Z,79.57
2018-11-28T22:17:07.578Z,72.80
2018-11-28T22:19:39.088Z,73.27
2018-11-28T22:22:11.352Z,72.90
2018-11-28T22:24:42.570Z,72.60
2018-11-28T22:27:13.796Z,72.90
2018-11-28T22:29:45.319Z,78.40
2018-11-28T22:32:16.775Z,74.57
2018-11-28T22:34:48.335Z,65.50
2018-11-28T22:37:19.513Z,73.30
2018-11-28T22:39:50.682Z,67.67
2018-11-28T22:42:21.731Z,75.70
2018-11-28T22:44:53.169Z,75.60
2018-11-28T22:47:25.280Z,72.00
2018-11-28T22:49:56.573Z,80.33
2018-11-28T22:52:27.890Z,79.67
2018-11-28T22:54:59.270Z,79.30
2018-11-28T22:57:30.509Z,82.47
2018-11-28T23:00:01.641Z,76.83
2018-11-28T23:02:59.216Z,76.10
2018-11-28T23:05:53.037Z,73.20
2018-11-28T23:08:25.026Z,69.40
2018-11-28T23:10:56.503Z,71.67
2018-11-28T23:13:28.432Z,74.87
2018-11-28T23:15:59.699Z,80.77
2018-11-28T23:18:31.214Z,72.37
2018-11-28T23:21:02.474Z,73.97
2018-11-28T23:23:33.593Z,73.53
2018-11-28T23:26:04.824Z,78.77
2018-11-28T23:28:36.003Z,74.73
2018-11-28T23:31:07.422Z,70.17
2018-11-28T23:33:38.667Z,83.20
2018-11-28T23:36:09.899Z,73.63
2018-11-28T23:38:41.270Z,79.30
2018-11-28T23:41:13.005Z,78.03
2018-11-28T23:43:44.139Z,79.17
2018-11-28T23:46:16.627Z,72.97
2018-11-28T23:48:48.978Z,73.17
2018-11-28T23:51:21.751Z,77.57
2018-11-28T23:53:53.177Z,78.67
2018-11-28T23:56:24.701Z,74.80
2018-11-28T23:58:55.893Z,76.23
